createdAt,value
2019-05-02T00:02:00.528Z,62.80
2019-05-02T00:04:27.674Z,71.33
2019-05-02T00:07:08.068Z,77.37
2019-05-02T00:09:35.699Z,91.40
2019-05-02T00:12:05.130Z,73.07
2019-05-02T00:14:32.576Z,74.23
2019-05-02T00:16:59.509Z,77.03
2019-05-02T00:19:26.546Z,91.57
2019-05-02T00:21:53.719Z,73.53
2019-05-02T00:24:20.755Z,95.77
2019-05-02T00:26:47.732Z,107.37
2019-05-02T00:29:18.942Z,74.30
2019-05-02T00:31:46.944Z,54.23
2019-05-02T00:34:14.435Z,44.87
2019-05-02T00:36:41.582Z,41.30
2019-05-02T00:39:09.624Z,56.13
2019-05-02T00:41:38.470Z,44.90
2019-05-02T00:44:11.114Z,49.90
2019-05-02T00:46:36.179Z,51.40
2019-05-02T00:49:03.290Z,64.40
2019-05-02T00:51:32.110Z,81.43
2019-05-02T00:53:59.040Z,83.03
2019-05-02T00:56:27.827Z,75.97
2019-05-02T00:58:54.869Z,60.47
2019-05-02T01:01:40.271Z,56.63
2019-05-02T01:04:29.203Z,73.47
2019-05-02T01:06:56.230Z,40.90
2019-05-02T01:09:23.167Z,50.33
2019-05-02T01:11:50.110Z,63.67
2019-05-02T01:14:17.105Z,50.17
2019-05-02T01:16:44.144Z,44.63
2019-05-02T01:19:12.208Z,68.97
2019-05-02T01:21:40.121Z,68.80
2019-05-02T01:24:07.318Z,62.30
2019-05-02T01:27:14.456Z,65.60
2019-05-02T01:29:46.713Z,44.53
2019-05-02T01:32:25.142Z,72.67
2019-05-02T01:35:10.056Z,60.90
2019-05-02T01:37:56.136Z,56.73
2019-05-02T01:40:23.287Z,51.53
2019-05-02T01:42:51.042Z,49.70
2019-05-02T01:45:18.155Z,50.30
2019-05-02T01:47:45.215Z,76.63
2019-05-02T01:50:12.608Z,53.53
2019-05-02T01:52:41.189Z,77.43
2019-05-02T01:55:08.435Z,73.10
2019-05-02T01:57:35.414Z,73.83
2019-05-02T02:00:09.416Z,49.57
2019-05-02T02:02:34.102Z,67.20
2019-05-02T02:05:01.157Z,59.20
2019-05-02T02:07:28.250Z,69.43
2019-05-02T02:09:56.384Z,91.33
2019-05-02T02:12:30.535Z,81.87
2019-05-02T02:14:57.593Z,84.13
2019-05-02T02:17:24.523Z,89.83
2019-05-02T02:19:55.747Z,84.70
2019-05-02T02:22:42.413Z,89.63
2019-05-02T02:25:32.344Z,93.77
2019-05-02T02:28:01.731Z,83.30
2019-05-02T02:30:28.766Z,98.33
2019-05-02T02:33:00.739Z,89.40
2019-05-02T02:35:24.640Z,90.73
2019-05-02T02:37:53.319Z,99.67
2019-05-02T02:40:20.416Z,106.33
2019-05-02T02:42:47.388Z,83.07
2019-05-02T02:45:58.051Z,66.87
2019-05-02T02:48:24.225Z,65.10
2019-05-02T02:50:51.213Z,62.10
2019-05-02T02:53:29.117Z,63.50
2019-05-02T02:56:02.079Z,106.50
2019-05-02T02:58:25.338Z,85.50
2019-05-02T03:01:12.347Z,75.50
2019-05-02T03:03:39.519Z,93.03
2019-05-02T03:06:28.457Z,74.00
2019-05-02T03:08:55.389Z,67.67
2019-05-02T03:11:25.569Z,67.43
2019-05-02T03:14:09.638Z,63.20
2019-05-02T03:16:46.059Z,68.13
2019-05-02T03:19:05.861Z,80.93
2019-05-02T03:21:32.938Z,106.93
2019-05-02T03:24:03.491Z,107.20
2019-05-02T03:26:28.758Z,93.20
2019-05-02T03:28:58.955Z,78.00
2019-05-02T03:31:30.260Z,94.43
2019-05-02T03:33:59.723Z,77.27
2019-05-02T03:36:30.578Z,68.97
2019-05-02T03:38:52.096Z,87.80
2019-05-02T03:41:20.817Z,83.67
2019-05-02T03:43:48.641Z,97.40
2019-05-02T03:46:20.607Z,104.37
2019-05-02T03:48:45.614Z,96.60
2019-05-02T03:51:21.298Z,101.97
2019-05-02T03:53:41.746Z,101.90
2019-05-02T03:56:11.370Z,101.33
2019-05-02T03:58:37.658Z,111.43
2019-05-02T04:01:04.594Z,112.47
2019-05-02T04:03:34.222Z,115.77
2019-05-02T04:06:01.041Z,133.70
2019-05-02T04:08:28.614Z,123.33
2019-05-02T04:11:24.453Z,115.43
2019-05-02T04:13:53.001Z,92.53
2019-05-02T04:16:21.414Z,84.07
2019-05-02T04:18:55.088Z,63.07
2019-05-02T04:21:24.413Z,86.43
2019-05-02T04:23:48.116Z,98.90
2019-05-02T04:26:16.914Z,80.10
2019-05-02T04:28:45.368Z,95.33
2019-05-02T04:31:12.931Z,113.00
2019-05-02T04:33:40.608Z,77.50
2019-05-02T04:36:14.826Z,107.80
2019-05-02T04:38:44.533Z,109.33
2019-05-02T04:41:05.398Z,116.17
2019-05-02T04:43:40.576Z,113.67
2019-05-02T04:46:09.255Z,115.57
2019-05-02T04:48:34.818Z,117.43
2019-05-02T04:51:10.154Z,105.70
2019-05-02T04:53:36.883Z,114.07
2019-05-02T04:56:04.408Z,125.37
2019-05-02T04:58:34.790Z,119.10
2019-05-02T05:01:01.795Z,129.40
2019-05-02T05:03:28.519Z,120.10
2019-05-02T05:05:59.376Z,116.27
2019-05-02T05:08:26.343Z,127.97
2019-05-02T05:10:53.245Z,116.27
2019-05-02T05:13:23.297Z,135.80
2019-05-02T05:15:51.896Z,144.77
2019-05-02T05:18:20.828Z,166.93
2019-05-02T05:20:54.262Z,148.83
2019-05-02T05:23:59.307Z,145.67
2019-05-02T05:26:21.924Z,139.10
2019-05-02T05:28:49.965Z,132.37
2019-05-02T05:31:23.962Z,154.50
2019-05-02T05:33:47.777Z,148.07
2019-05-02T05:36:14.599Z,134.00
2019-05-02T05:38:41.586Z,124.97
2019-05-02T05:41:12.831Z,136.23
2019-05-02T05:43:37.963Z,131.97
2019-05-02T05:46:10.740Z,130.23
2019-05-02T05:48:37.218Z,118.27
2019-05-02T05:51:03.102Z,115.17
2019-05-02T05:53:32.128Z,117.13
2019-05-02T05:56:09.204Z,107.73
2019-05-02T05:58:39.968Z,107.57
2019-05-02T06:01:09.344Z,108.57
2019-05-02T06:03:38.871Z,105.93
2019-05-02T06:06:03.042Z,107.33
2019-05-02T06:08:30.023Z,100.50
2019-05-02T06:10:56.985Z,95.27
2019-05-02T06:13:25.154Z,101.63
2019-05-02T06:16:02.107Z,98.63
2019-05-02T06:18:28.440Z,92.97
2019-05-02T06:20:58.359Z,87.50
2019-05-02T06:23:24.726Z,89.63
2019-05-02T06:25:51.665Z,89.80
2019-05-02T06:28:18.661Z,89.17
2019-05-02T06:30:45.611Z,80.07
2019-05-02T06:33:12.545Z,75.67
2019-05-02T06:35:39.511Z,78.80
2019-05-02T06:38:06.438Z,87.07
2019-05-02T06:40:33.380Z,74.17
2019-05-02T06:43:04.298Z,80.87
2019-05-02T06:45:32.200Z,78.80
2019-05-02T06:48:01.000Z,71.10
2019-05-02T06:50:28.099Z,81.17
2019-05-02T06:52:55.035Z,78.67
2019-05-02T06:55:21.990Z,85.47
2019-05-02T06:57:51.618Z,86.60
2019-05-02T07:00:18.075Z,67.43
2019-05-02T07:02:45.001Z,86.97
2019-05-02T07:05:12.450Z,91.17
2019-05-02T07:07:39.391Z,84.13
2019-05-02T07:10:07.468Z,89.30
2019-05-02T07:12:34.664Z,93.23
2019-05-02T07:15:03.845Z,85.40
2019-05-02T07:17:41.358Z,83.97
2019-05-02T07:27:20.971Z,84.90
2019-05-02T07:29:52.127Z,85.43
2019-05-02T07:32:24.078Z,84.90
2019-05-02T07:34:48.139Z,95.97
2019-05-02T07:37:15.408Z,84.50
2019-05-02T07:39:46.215Z,90.67
2019-05-02T07:42:13.233Z,89.93
2019-05-02T07:44:40.239Z,90.87
2019-05-02T07:47:07.185Z,89.70
2019-05-02T07:49:34.368Z,89.07
2019-05-02T07:52:01.752Z,91.13
2019-05-02T07:54:28.803Z,83.90
2019-05-02T07:56:55.763Z,83.13
2019-05-02T07:59:23.436Z,86.37
2019-05-02T08:01:51.009Z,86.70
2019-05-02T08:04:17.951Z,91.93
2019-05-02T08:06:46.382Z,90.57
2019-05-02T08:09:13.483Z,88.70
2019-05-02T08:11:40.532Z,90.90
2019-05-02T08:14:07.508Z,90.80
2019-05-02T08:16:34.590Z,90.33
2019-05-02T08:19:05.542Z,99.73
2019-05-02T08:21:33.957Z,99.00
2019-05-02T08:24:02.197Z,102.73
2019-05-02T08:26:47.719Z,91.40
2019-05-02T08:29:15.238Z,102.47
2019-05-02T08:31:42.214Z,111.70
2019-05-02T08:34:14.690Z,118.03
2019-05-02T08:36:38.116Z,115.87
2019-05-02T08:39:05.596Z,113.33
2019-05-02T08:41:32.674Z,112.03
2019-05-02T08:43:59.613Z,122.33
2019-05-02T08:46:26.776Z,116.50
2019-05-02T08:48:53.974Z,115.30
2019-05-02T08:51:20.890Z,114.33
2019-05-02T08:53:52.112Z,114.20
2019-05-02T08:56:21.347Z,124.60
2019-05-02T08:58:49.820Z,117.93
2019-05-02T09:01:16.244Z,117.27
2019-05-02T09:03:55.062Z,108.07
2019-05-02T09:06:12.288Z,104.87
2019-05-02T09:08:39.235Z,106.60
2019-05-02T09:11:06.334Z,117.90
2019-05-02T09:13:33.280Z,111.77
2019-05-02T09:16:02.693Z,108.87
2019-05-02T09:18:35.068Z,103.47
2019-05-02T09:20:58.018Z,102.50
2019-05-02T09:23:27.455Z,96.20
2019-05-02T09:25:53.842Z,98.03
2019-05-02T09:28:22.454Z,95.40
2019-05-02T09:30:49.652Z,97.90
2019-05-02T09:33:16.738Z,104.67
2019-05-02T09:35:43.673Z,87.60
2019-05-02T09:38:12.486Z,87.77
2019-05-02T09:40:42.633Z,92.23
2019-05-02T09:43:09.643Z,86.63
2019-05-02T09:45:55.156Z,87.30
2019-05-02T09:48:26.656Z,82.90
2019-05-02T09:50:52.848Z,81.23
2019-05-02T09:53:24.219Z,84.50
2019-05-02T09:55:57.163Z,79.83
2019-05-02T09:58:21.891Z,75.03
2019-05-02T10:00:56.426Z,77.03
2019-05-02T10:03:25.827Z,68.97
2019-05-02T10:05:52.779Z,75.60
2019-05-02T10:08:19.854Z,71.27
2019-05-02T10:10:46.861Z,72.20
2019-05-02T10:13:13.849Z,67.97
2019-05-02T10:15:42.119Z,69.17
2019-05-02T10:18:12.038Z,67.13
2019-05-02T10:20:38.358Z,65.03
2019-05-02T10:23:05.331Z,68.90
2019-05-02T10:25:38.443Z,62.77
2019-05-02T10:28:02.154Z,61.30
2019-05-02T10:30:35.608Z,62.10
2019-05-02T10:33:07.292Z,63.47
2019-05-02T10:35:40.814Z,63.57
2019-05-02T10:38:09.442Z,65.10
2019-05-02T10:40:35.844Z,65.53
2019-05-02T10:43:04.496Z,64.80
2019-05-02T10:45:32.124Z,62.53
2019-05-02T10:47:59.221Z,62.57
2019-05-02T10:50:32.753Z,61.90
2019-05-02T10:53:03.577Z,63.17
2019-05-02T10:55:28.393Z,62.17
2019-05-02T10:57:55.322Z,64.57
2019-05-02T11:00:25.916Z,56.40
2019-05-02T11:03:18.606Z,60.00
2019-05-02T11:05:49.042Z,59.20
2019-05-02T11:08:16.164Z,55.03
2019-05-02T11:10:44.124Z,57.33
2019-05-02T11:13:16.990Z,59.33
2019-05-02T11:16:03.770Z,55.83
2019-05-02T11:18:42.383Z,57.73
2019-05-02T11:21:06.782Z,61.03
2019-05-02T11:23:32.858Z,51.77
2019-05-02T11:26:01.747Z,53.57
2019-05-02T11:28:28.835Z,52.33
2019-05-02T11:31:01.509Z,46.37
2019-05-02T11:33:25.951Z,48.10
2019-05-02T11:35:53.565Z,48.80
2019-05-02T11:38:36.361Z,48.87
2019-05-02T11:40:49.628Z,54.07
2019-05-02T11:43:16.623Z,55.90
2019-05-02T11:45:45.377Z,49.17
2019-05-02T11:48:14.017Z,47.33
2019-05-02T11:50:42.258Z,53.67
2019-05-02T11:53:23.203Z,66.33
2019-05-02T11:55:41.384Z,45.93
2019-05-02T11:58:10.625Z,45.50
2019-05-02T12:00:39.687Z,46.67
2019-05-02T12:03:16.021Z,45.97
2019-05-02T12:05:43.511Z,50.87
2019-05-02T12:08:12.139Z,52.50
2019-05-02T12:10:39.351Z,48.57
2019-05-02T12:13:06.729Z,45.70
2019-05-02T12:15:35.170Z,50.60
2019-05-02T12:18:02.551Z,46.33
2019-05-02T12:20:35.291Z,47.00
2019-05-02T12:22:58.614Z,52.33
2019-05-02T12:25:25.689Z,50.77
2019-05-02T12:28:13.029Z,53.37
2019-05-02T12:30:41.890Z,47.87
2019-05-02T12:33:12.247Z,55.83
2019-05-02T12:35:39.514Z,59.83
2019-05-02T12:38:06.490Z,71.30
2019-05-02T12:40:33.453Z,55.97
2019-05-02T12:43:02.352Z,74.67
2019-05-02T12:45:29.281Z,62.53
2019-05-02T12:47:56.250Z,70.47
2019-05-02T12:50:23.467Z,80.67
2019-05-02T12:52:52.144Z,87.70
2019-05-02T12:55:19.443Z,109.97
2019-05-02T12:57:46.427Z,107.67
2019-05-02T13:00:15.176Z,110.87
2019-05-02T13:02:52.514Z,122.33
2019-05-02T13:05:19.678Z,114.03
2019-05-02T13:07:50.381Z,117.43
2019-05-02T13:10:25.262Z,126.23
2019-05-02T13:12:53.199Z,119.73
2019-05-02T13:15:22.033Z,114.60
2019-05-02T13:17:49.369Z,113.93
2019-05-02T13:20:18.235Z,122.13
2019-05-02T13:23:03.818Z,115.37
2019-05-02T13:25:32.908Z,113.07
2019-05-02T13:28:02.017Z,120.30
2019-05-02T13:30:42.737Z,116.73
2019-05-02T13:33:08.206Z,108.97
2019-05-02T13:35:47.895Z,114.10
2019-05-02T13:38:17.965Z,114.90
2019-05-02T13:40:45.062Z,112.00
2019-05-02T13:43:12.748Z,119.60
2019-05-02T13:46:12.676Z,113.00
2019-05-02T13:48:39.805Z,108.67
2019-05-02T13:51:06.765Z,109.50
2019-05-02T13:53:36.000Z,106.50
2019-05-02T13:56:22.108Z,103.10
2019-05-02T13:58:49.081Z,98.67
2019-05-02T14:01:16.802Z,101.47
2019-05-02T14:03:43.822Z,76.67
2019-05-02T14:06:12.572Z,83.47
2019-05-02T14:08:53.259Z,86.53
2019-05-02T14:11:41.028Z,81.27
2019-05-02T14:17:39.220Z,80.13
2019-05-02T14:20:10.431Z,80.23
2019-05-02T14:22:35.260Z,79.20
2019-05-02T14:25:02.336Z,80.20
2019-05-02T14:27:29.309Z,82.07
2019-05-02T14:29:56.299Z,72.90
2019-05-02T14:32:26.544Z,76.83
2019-05-02T14:35:09.227Z,74.97
2019-05-02T14:37:36.292Z,72.00
2019-05-02T14:40:11.772Z,67.43
2019-05-02T14:42:38.748Z,63.40
2019-05-02T14:45:27.279Z,59.17
2019-05-02T14:47:42.437Z,55.03
2019-05-02T14:50:22.788Z,46.00
2019-05-02T14:52:42.193Z,38.03
2019-05-02T14:55:09.124Z,47.33
2019-05-02T14:57:36.056Z,50.13
2019-05-02T15:00:04.187Z,50.50
2019-05-02T15:02:47.152Z,51.33
2019-05-02T15:05:12.830Z,60.00
2019-05-02T15:07:39.822Z,72.73
2019-05-02T15:10:07.144Z,69.93
2019-05-02T15:12:34.214Z,73.73
2019-05-02T15:15:02.542Z,71.60
2019-05-02T15:17:33.691Z,74.27
2019-05-02T15:19:59.269Z,76.03
2019-05-02T15:22:27.708Z,80.27
2019-05-02T15:24:56.535Z,85.57
2019-05-02T15:27:23.813Z,94.60
2019-05-02T15:30:06.564Z,98.27
2019-05-02T15:33:04.386Z,101.70
2019-05-02T15:36:03.252Z,104.10
2019-05-02T15:38:29.035Z,105.37
2019-05-02T15:40:59.131Z,110.93
2019-05-02T15:43:24.821Z,105.67
2019-05-02T15:45:52.660Z,108.13
2019-05-02T15:48:26.077Z,103.97
2019-05-02T15:50:52.998Z,115.00
2019-05-02T15:53:48.570Z,111.07
2019-05-02T15:56:19.867Z,119.13
2019-05-02T15:58:44.059Z,112.53
2019-05-02T16:01:29.478Z,97.47
2019-05-02T16:04:01.704Z,104.77
2019-05-02T16:06:31.696Z,99.47
2019-05-02T16:08:57.803Z,103.17
2019-05-02T16:11:24.741Z,97.37
2019-05-02T16:13:55.675Z,90.30
2019-05-02T16:16:21.897Z,92.87
2019-05-02T16:18:49.266Z,85.07
2019-05-02T16:21:42.513Z,81.87
2019-05-02T16:24:35.226Z,69.10
2019-05-02T16:27:02.245Z,60.00
2019-05-02T16:30:11.440Z,63.23
2019-05-02T16:32:46.036Z,55.80
2019-05-02T16:35:17.487Z,57.30
2019-05-02T16:37:46.769Z,58.97
2019-05-02T16:40:14.326Z,56.67
2019-05-02T16:42:41.934Z,58.43
2019-05-02T16:45:11.653Z,53.97
2019-05-02T16:47:38.404Z,54.53
2019-05-02T16:50:06.901Z,50.73
2019-05-02T16:52:38.106Z,41.10
2019-05-02T16:55:04.390Z,47.03
2019-05-02T16:57:34.837Z,43.57
2019-05-02T17:00:05.941Z,41.87
2019-05-02T17:02:29.134Z,41.60
2019-05-02T17:05:00.228Z,42.87
2019-05-02T17:07:41.080Z,38.17
2019-05-02T17:10:18.665Z,37.40
2019-05-02T17:12:47.329Z,36.93
2019-05-02T17:15:35.293Z,37.50
2019-05-02T17:18:12.608Z,31.00
2019-05-02T17:20:34.259Z,32.20
2019-05-02T17:23:07.897Z,35.87
2019-05-02T17:25:34.854Z,30.77
2019-05-02T17:28:07.024Z,32.83
2019-05-02T17:30:38.551Z,32.17
2019-05-02T17:33:01.749Z,29.57
2019-05-02T17:35:28.885Z,32.27
2019-05-02T17:37:55.884Z,38.77
2019-05-02T17:40:26.096Z,38.17
2019-05-02T17:42:52.520Z,34.80
2019-05-02T17:45:23.876Z,35.40
2019-05-02T17:47:50.669Z,40.37
2019-05-02T17:50:42.246Z,34.63
2019-05-02T17:53:09.298Z,35.17
2019-05-02T17:55:40.248Z,36.53
2019-05-02T17:58:12.537Z,33.13
2019-05-02T18:00:39.155Z,36.97
2019-05-02T18:03:06.126Z,35.30
2019-05-02T18:05:35.661Z,35.43
2019-05-02T18:08:06.102Z,34.97
2019-05-02T18:10:32.314Z,38.47
2019-05-02T18:13:00.002Z,32.17
2019-05-02T18:15:29.869Z,31.60
2019-05-02T18:17:59.884Z,33.03
2019-05-02T18:20:25.467Z,32.83
2019-05-02T18:22:52.613Z,36.10
2019-05-02T18:25:21.680Z,32.90
2019-05-02T18:27:48.829Z,35.20
2019-05-02T18:30:24.978Z,38.83
2019-05-02T18:32:48.142Z,37.90
2019-05-02T18:35:15.199Z,40.90
2019-05-02T18:37:46.639Z,42.33
2019-05-02T18:40:11.969Z,38.37
2019-05-02T18:42:39.103Z,37.07
2019-05-02T18:45:08.869Z,37.00
2019-05-02T18:47:35.943Z,38.60
2019-05-02T18:50:06.149Z,39.33
2019-05-02T18:52:42.908Z,41.93
2019-05-02T18:55:05.826Z,37.73
2019-05-02T18:57:32.905Z,31.63
2019-05-02T19:00:01.864Z,29.00
2019-05-02T19:02:32.767Z,37.10
2019-05-02T19:04:57.918Z,28.60
2019-05-02T19:07:32.824Z,28.80
2019-05-02T19:09:54.053Z,18.83
2019-05-02T19:12:24.002Z,18.33
2019-05-02T19:14:50.029Z,20.60
2019-05-02T19:17:17.031Z,15.20
2019-05-02T19:19:56.516Z,16.60
2019-05-02T19:22:24.712Z,16.03
2019-05-02T19:24:52.404Z,17.90
2019-05-02T19:27:48.357Z,16.33
2019-05-02T19:30:34.637Z,13.20
2019-05-02T19:33:06.087Z,14.10
2019-05-02T19:35:32.641Z,12.27
2019-05-02T19:38:02.578Z,20.87
2019-05-02T19:40:31.656Z,15.40
2019-05-02T19:43:05.942Z,19.03
2019-05-02T19:45:27.999Z,13.07
2019-05-02T19:47:57.664Z,13.97
2019-05-02T19:50:41.582Z,12.67
2019-05-02T19:53:15.155Z,14.63
2019-05-02T19:55:36.245Z,19.60
2019-05-02T19:58:06.494Z,15.07
2019-05-02T20:00:36.571Z,14.13
2019-05-02T20:03:03.914Z,21.13
2019-05-02T20:05:32.255Z,9.93
2019-05-02T20:07:59.635Z,9.63
2019-05-02T20:10:26.579Z,13.53
2019-05-02T20:12:53.570Z,13.37
2019-05-02T20:15:25.427Z,10.30
2019-05-02T20:17:53.470Z,8.63
2019-05-02T20:20:40.476Z,12.63
2019-05-02T20:23:15.482Z,11.20
2019-05-02T20:25:39.122Z,14.10
2019-05-02T20:28:06.072Z,14.13
2019-05-02T20:30:34.365Z,17.63
2019-05-02T20:33:05.361Z,18.63
2019-05-02T20:35:32.492Z,19.20
2019-05-02T20:38:01.564Z,13.67
2019-05-02T20:40:31.923Z,18.63
2019-05-02T20:42:59.579Z,14.50
2019-05-02T20:45:35.390Z,15.33
2019-05-02T20:48:02.445Z,11.23
2019-05-02T20:50:31.688Z,11.10
2019-05-02T20:52:58.476Z,18.40
2019-05-02T20:55:25.700Z,10.93
2019-05-02T20:57:54.520Z,14.23
2019-05-02T21:00:23.800Z,15.97
2019-05-02T21:02:51.894Z,14.60
2019-05-02T21:05:21.188Z,17.10
2019-05-02T21:08:05.182Z,19.03
2019-05-02T21:10:36.104Z,17.07
2019-05-02T21:13:04.061Z,22.43
2019-05-02T21:15:32.336Z,19.53
2019-05-02T21:17:59.497Z,19.17
2019-05-02T21:20:26.696Z,12.80
2019-05-02T21:22:53.737Z,13.80
2019-05-02T21:25:23.003Z,15.33
2019-05-02T21:27:49.727Z,20.73
2019-05-02T21:30:23.385Z,11.10
2019-05-02T21:32:52.064Z,14.03
2019-05-02T21:35:22.379Z,13.80
2019-05-02T21:37:49.405Z,11.07
2019-05-02T21:40:16.609Z,10.10
2019-05-02T21:42:43.682Z,22.07
2019-05-02T21:45:12.996Z,17.13
2019-05-02T21:47:39.724Z,17.57
2019-05-02T21:50:27.179Z,16.60
2019-05-02T21:53:19.824Z,14.90
2019-05-02T21:56:12.267Z,16.53
2019-05-02T21:58:42.766Z,14.00
2019-05-02T22:01:12.992Z,15.73
2019-05-02T22:03:40.585Z,20.50
2019-05-02T22:06:08.072Z,13.10
2019-05-02T22:08:35.100Z,19.23
2019-05-02T22:11:02.531Z,17.67
2019-05-02T22:13:31.468Z,20.60
2019-05-02T22:15:58.692Z,19.53
2019-05-02T22:19:08.073Z,14.17
2019-05-02T22:21:35.266Z,19.47
2019-05-02T22:24:11.248Z,16.63
2019-05-02T22:26:32.725Z,20.87
2019-05-02T22:29:01.937Z,16.20
2019-05-02T22:31:29.022Z,17.37
2019-05-02T22:33:56.329Z,16.60
2019-05-02T22:36:23.455Z,16.73
2019-05-02T22:38:55.675Z,17.00
2019-05-02T22:41:22.679Z,22.77
2019-05-02T22:43:49.690Z,13.50
2019-05-02T22:46:36.645Z,19.10
2019-05-02T22:49:04.119Z,14.87
2019-05-02T22:51:32.018Z,20.03
2019-05-02T22:53:59.120Z,16.97
2019-05-02T22:56:26.160Z,21.03
2019-05-02T22:58:53.439Z,20.70
2019-05-02T23:01:21.623Z,17.73
2019-05-02T23:03:48.739Z,17.03
2019-05-02T23:06:15.733Z,23.33
2019-05-02T23:08:43.510Z,18.00
2019-05-02T23:11:10.630Z,14.80
2019-05-02T23:13:37.645Z,18.43
2019-05-02T23:16:04.701Z,15.13
2019-05-02T23:18:32.014Z,17.80
2019-05-02T23:21:06.468Z,22.70
2019-05-02T23:23:33.461Z,20.77
2019-05-02T23:26:16.591Z,18.47
2019-05-02T23:28:46.295Z,17.13
2019-05-02T23:31:14.053Z,14.97
2019-05-02T23:34:01.821Z,14.67
2019-05-02T23:36:29.917Z,17.27
2019-05-02T23:38:57.205Z,15.73
2019-05-02T23:41:28.851Z,17.43
2019-05-02T23:43:55.965Z,16.27
2019-05-02T23:46:22.924Z,16.17
2019-05-02T23:48:50.076Z,17.23
2019-05-02T23:51:17.193Z,14.40
2019-05-02T23:54:02.556Z,14.57
2019-05-02T23:56:29.542Z,14.23
2019-05-02T23:58:56.520Z,16.90
